Time;durP1;ratioP1;P1;durP2;ratioP2;P2;SDS_P1;SDS_P2;PMS_P1;PMS_P2;Temp;Humidity;BMP_temperature;BMP_pressure;BME280_temperature;BME280_humidity;BME280_pressure;Samples;Min_cycle;Max_cycle;Signal;HPM_P1;HPM_P2
2022/01/11 00:01:52;;;;;;;0.00;0.00;;;;;21.00;100306.00;;;;5090384;28;20051;-78
2022/01/11 00:04:28;;;;;;;0.00;0.00;;;;;21.10;100303.00;;;;5089697;28;20423;-78
2022/01/11 00:07:00;;;;;;;0.00;0.00;;;;;21.10;100300.00;;;;5088907;28;20560;-78
2022/01/11 00:09:37;;;;;;;0.00;0.00;;;;;21.10;100304.00;;;;5085093;28;20400;-78
2022/01/11 00:12:10;;;;;;;0.00;0.00;;;;;21.00;100314.00;;;;5088950;28;20345;-77
2022/01/11 00:14:40;;;;;;;0.00;0.00;;;;;21.20;100311.00;;;;5089441;28;20418;-78
2022/01/11 00:17:09;;;;;;;0.00;0.00;;;;;21.10;100303.00;;;;5088683;28;20050;-78
2022/01/11 00:19:39;;;;;;;0.00;0.00;;;;;21.10;100306.00;;;;5089547;28;20464;-78
2022/01/11 00:22:16;;;;;;;0.38;0.10;;;;;21.00;100302.00;;;;5086082;28;20040;-79
2022/01/11 00:24:46;;;;;;;0.00;0.00;;;;;21.00;100303.00;;;;5088319;28;20039;-78
2022/01/11 00:27:18;;;;;;;0.00;0.00;;;;;20.90;100316.00;;;;5088499;28;20075;-78
2022/01/11 00:29:51;;;;;;;0.00;0.00;;;;;20.80;100312.00;;;;5088557;28;20114;-78
2022/01/11 00:32:37;;;;;;;0.00;0.00;;;;;20.70;100282.00;;;;5086979;28;20105;-77
2022/01/11 00:35:11;;;;;;;0.00;0.00;;;;;20.60;100301.00;;;;5087548;28;20050;-78
2022/01/11 00:37:40;;;;;;;0.00;0.00;;;;;20.50;100299.00;;;;5086900;28;20064;-77
2022/01/11 00:40:11;;;;;;;0.00;0.00;;;;;20.40;100288.00;;;;5086136;28;20135;-77
2022/01/11 00:42:41;;;;;;;0.00;0.00;;;;;20.30;100305.00;;;;5086804;28;20036;-78
2022/01/11 00:45:12;;;;;;;0.00;0.00;;;;;20.20;100297.00;;;;5086104;28;20040;-77
2022/01/11 00:47:42;;;;;;;0.00;0.00;;;;;20.30;100297.00;;;;5088871;28;20067;-77
2022/01/11 00:50:11;;;;;;;0.00;0.00;;;;;20.20;100298.00;;;;5087405;28;20594;-78
2022/01/11 00:52:41;;;;;;;0.00;0.00;;;;;20.10;100277.00;;;;5088687;28;20079;-78
2022/01/11 00:55:11;;;;;;;0.00;0.00;;;;;20.10;100301.00;;;;5088331;28;20031;-78
2022/01/11 00:57:40;;;;;;;0.00;0.00;;;;;20.10;100305.00;;;;5088184;28;20086;-77
2022/01/11 01:00:11;;;;;;;0.13;0.13;;;;;20.10;100308.00;;;;5086606;28;20032;-78
2022/01/11 01:02:42;;;;;;;0.00;0.00;;;;;20.00;100308.00;;;;5087509;28;20036;-78
2022/01/11 01:05:12;;;;;;;0.00;0.00;;;;;20.00;100292.00;;;;5088080;28;20040;-78
2022/01/11 01:07:42;;;;;;;0.00;0.00;;;;;19.90;100301.00;;;;5088700;28;20050;-77
2022/01/11 01:10:21;;;;;;;0.00;0.00;;;;;19.80;100303.00;;;;5070215;28;20058;-77
2022/01/11 01:12:58;;;;;;;0.00;0.00;;;;;19.70;100308.00;;;;5070923;28;20056;-77
2022/01/11 01:15:28;;;;;;;0.00;0.00;;;;;19.60;100292.00;;;;5085546;28;20515;-78
2022/01/11 01:18:03;;;;;;;0.00;0.00;;;;;19.60;100290.00;;;;5085117;28;20068;-77
2022/01/11 01:20:34;;;;;;;0.00;0.00;;;;;19.60;100297.00;;;;5069461;28;20067;-77
2022/01/11 01:23:04;;;;;;;0.00;0.00;;;;;19.50;100296.00;;;;5086684;28;20151;-78
2022/01/11 01:25:34;;;;;;;0.00;0.00;;;;;19.50;100295.00;;;;5085792;28;20501;-77
2022/01/11 01:28:05;;;;;;;0.00;0.00;;;;;19.40;100299.00;;;;5087846;28;20460;-77
2022/01/11 01:30:35;;;;;;;0.00;0.00;;;;;19.40;100294.00;;;;5087879;28;20640;-78
2022/01/11 01:33:05;;;;;;;;;;;;;19.40;100304.00;;;;5088832;28;20058;-77
2022/01/11 01:35:40;;;;;;;0.00;0.00;;;;;19.40;100289.00;;;;5088224;28;19924;-78
2022/01/11 01:38:12;;;;;;;0.00;0.00;;;;;19.30;100289.00;;;;5088453;28;20423;-77
2022/01/11 01:40:45;;;;;;;0.00;0.00;;;;;19.30;100298.00;;;;5088190;28;20143;-77
2022/01/11 01:43:16;;;;;;;0.00;0.00;;;;;19.30;100304.00;;;;5086825;28;20054;-77
2022/01/11 01:45:46;;;;;;;0.00;0.00;;;;;19.30;100315.00;;;;5086449;28;20060;-77
2022/01/11 01:48:16;;;;;;;0.05;0.05;;;;;19.20;100306.00;;;;5087462;28;20079;-77
2022/01/11 01:50:48;;;;;;;0.00;0.00;;;;;19.20;100312.00;;;;5087339;28;20048;-77
2022/01/11 01:53:18;;;;;;;0.00;0.00;;;;;19.20;100288.00;;;;5087836;28;20507;-77
2022/01/11 01:55:48;;;;;;;;;;;;;19.20;100305.00;;;;5088414;28;20047;-77
2022/01/11 01:58:18;;;;;;;0.00;0.00;;;;;19.10;100290.00;;;;5069740;28;20375;-77
2022/01/11 02:00:54;;;;;;;0.60;0.45;;;;;19.10;100291.00;;;;5085968;28;20040;-78
2022/01/11 02:03:29;;;;;;;0.00;0.00;;;;;19.10;100295.00;;;;5086251;28;20123;-78
2022/01/11 02:05:59;;;;;;;0.00;0.00;;;;;19.10;100292.00;;;;5085670;28;20059;-76
2022/01/11 02:08:30;;;;;;;0.00;0.00;;;;;19.10;100279.00;;;;5087122;28;20130;-77
2022/01/11 02:10:59;;;;;;;0.00;0.00;;;;;19.10;100293.00;;;;5087821;28;20062;-76
2022/01/11 02:13:29;;;;;;;2.88;2.63;;;;;19.00;100277.00;;;;5085340;28;20097;-77
2022/01/11 02:15:59;;;;;;;0.00;0.00;;;;;18.90;100276.00;;;;5085726;28;20055;-77
2022/01/11 02:18:31;;;;;;;0.00;0.00;;;;;18.90;100286.00;;;;5086947;28;20575;-77
2022/01/11 02:21:10;;;;;;;0.00;0.00;;;;;18.90;100274.00;;;;5085654;28;20097;-76
2022/01/11 02:23:40;;;;;;;0.00;0.00;;;;;18.90;100281.00;;;;5085687;28;20594;-77
2022/01/11 02:26:11;;;;;;;0.00;0.00;;;;;18.80;100269.00;;;;5086051;28;20135;-77
2022/01/11 02:28:43;;;;;;;0.00;0.00;;;;;18.80;100296.00;;;;5086111;28;20595;-76
2022/01/11 02:31:14;;;;;;;;;;;;;18.80;100288.00;;;;5086068;28;20514;-76
2022/01/11 02:33:52;;;;;;;0.00;0.00;;;;;18.70;100294.00;;;;5085915;28;19923;-77
2022/01/11 02:36:34;;;;;;;0.00;0.00;;;;;18.70;100289.00;;;;5085366;28;20044;-76
2022/01/11 02:39:28;;;;;;;0.00;0.00;;;;;18.70;100286.00;;;;5086864;28;20055;-77
2022/01/11 02:42:36;;;;;;;0.00;0.00;;;;;18.80;100288.00;;;;5086202;28;20075;-76
2022/01/11 02:45:19;;;;;;;0.00;0.00;;;;;18.70;100278.00;;;;5084724;28;20047;-77
2022/01/11 02:47:50;;;;;;;0.00;0.00;;;;;18.70;100289.00;;;;5085311;28;20418;-77
2022/01/11 02:50:19;;;;;;;0.00;0.00;;;;;18.60;100265.00;;;;5068415;28;20083;-76
2022/01/11 02:52:50;;;;;;;;;;;;;18.50;100290.00;;;;5085558;28;20040;-76
2022/01/11 02:55:20;;;;;;;0.00;0.00;;;;;18.50;100272.00;;;;5084832;28;20302;-76
2022/01/11 02:57:50;;;;;;;0.00;0.00;;;;;18.50;100265.00;;;;5086181;28;20066;-76
2022/01/11 03:00:24;;;;;;;0.00;0.00;;;;;18.50;100280.00;;;;5085733;28;20442;-76
2022/01/11 03:02:55;;;;;;;0.00;0.00;;;;;18.50;100260.00;;;;5085407;28;20059;-77
2022/01/11 03:05:27;;;;;;;0.00;0.00;;;;;18.40;100256.00;;;;5084619;28;20048;-77
2022/01/11 03:08:01;;;;;;;0.00;0.00;;;;;18.40;100258.00;;;;5084860;28;20052;-77
2022/01/11 03:10:34;;;;;;;3.20;1.02;;;;;18.40;100264.00;;;;5085172;28;20117;-77
2022/01/11 03:13:08;;;;;;;0.00;0.00;;;;;18.40;100258.00;;;;5085810;28;20048;-77
2022/01/11 03:15:41;;;;;;;0.00;0.00;;;;;18.40;100254.00;;;;5085383;28;20131;-77
2022/01/11 03:18:13;;;;;;;0.00;0.00;;;;;18.40;100242.00;;;;5085135;28;20470;-77
2022/01/11 03:20:49;;;;;;;0.00;0.00;;;;;18.30;100263.00;;;;5085126;28;20059;-76
2022/01/11 03:23:19;;;;;;;0.00;0.00;;;;;18.20;100255.00;;;;5085102;28;20113;-77
2022/01/11 03:25:51;;;;;;;0.00;0.00;;;;;18.20;100256.00;;;;5068423;28;20059;-77
2022/01/11 03:28:24;;;;;;;0.20;0.20;;;;;18.30;100252.00;;;;5085192;28;20105;-76
2022/01/11 03:30:54;;;;;;;0.00;0.00;;;;;18.30;100232.00;;;;5084662;28;20040;-76
2022/01/11 03:33:24;;;;;;;0.00;0.00;;;;;18.20;100240.00;;;;5085170;28;20048;-77
2022/01/11 03:35:54;;;;;;;0.00;0.00;;;;;18.20;100249.00;;;;5084908;28;20132;-76
2022/01/11 03:38:24;;;;;;;0.00;0.00;;;;;18.20;100235.00;;;;5084727;28;20139;-76
2022/01/11 03:41:01;;;;;;;0.00;0.00;;;;;18.20;100238.00;;;;5084495;28;20044;-76
2022/01/11 03:43:30;;;;;;;0.00;0.00;;;;;18.10;100236.00;;;;5085929;28;20078;-76
2022/01/11 03:46:00;;;;;;;0.00;0.00;;;;;18.10;100233.00;;;;5086537;28;20054;-76
2022/01/11 03:48:29;;;;;;;0.00;0.00;;;;;18.10;100222.00;;;;5084547;28;20537;-77
2022/01/11 03:50:59;;;;;;;0.00;0.00;;;;;18.10;100222.00;;;;5086296;28;20068;-77
2022/01/11 03:54:23;;;;;;;0.00;0.00;;;;;18.10;100225.00;;;;5084363;28;20043;-76
2022/01/11 03:56:54;;;;;;;0.00;0.00;;;;;18.10;100220.00;;;;5084559;28;20066;-76
2022/01/11 03:59:28;;;;;;;0.00;0.00;;;;;18.00;100208.00;;;;5084896;28;20070;-76
2022/01/11 04:01:57;;;;;;;0.00;0.00;;;;;18.00;100213.00;;;;5084696;28;20472;-76
2022/01/11 04:04:27;;;;;;;0.00;0.00;;;;;18.00;100209.00;;;;5086694;28;20441;-77
2022/01/11 04:06:57;;;;;;;0.00;0.00;;;;;18.10;100202.00;;;;5084633;28;20059;-77
2022/01/11 04:09:28;;;;;;;0.00;0.00;;;;;18.00;100182.00;;;;5067935;28;20067;-76
2022/01/11 04:11:58;;;;;;;0.00;0.00;;;;;18.00;100192.00;;;;5084538;28;20071;-77
2022/01/11 04:14:29;;;;;;;0.00;0.00;;;;;18.00;100173.00;;;;5084204;28;20531;-77
2022/01/11 04:16:59;;;;;;;1.00;0.98;;;;;18.00;100193.00;;;;5084358;28;20075;-76
2022/01/11 04:19:29;;;;;;;0.00;0.00;;;;;17.90;100181.00;;;;5087725;28;20048;-76
2022/01/11 04:21:58;;;;;;;0.00;0.00;;;;;17.90;100188.00;;;;5087923;28;20135;-78
2022/01/11 04:24:29;;;;;;;0.00;0.00;;;;;17.80;100172.00;;;;5088202;28;20130;-78
2022/01/11 04:26:59;;;;;;;0.00;0.00;;;;;17.80;100183.00;;;;5087805;28;20048;-77
2022/01/11 04:29:29;;;;;;;0.00;0.00;;;;;17.80;100152.00;;;;5087518;28;20059;-78
2022/01/11 04:31:58;;;;;;;0.00;0.00;;;;;17.80;100157.00;;;;5089224;28;20043;-77
2022/01/11 04:34:28;;;;;;;0.00;0.00;;;;;17.80;100173.00;;;;5088297;28;20059;-77
2022/01/11 04:36:58;;;;;;;0.00;0.00;;;;;17.80;100165.00;;;;5089100;28;20040;-77
2022/01/11 04:39:28;;;;;;;0.00;0.00;;;;;17.70;100173.00;;;;5087494;28;20052;-77
2022/01/11 04:41:58;;;;;;;0.00;0.00;;;;;17.80;100151.00;;;;5088170;28;20194;-77
2022/01/11 04:44:28;;;;;;;0.00;0.00;;;;;17.80;100148.00;;;;5087822;28;20040;-77
2022/01/11 04:46:59;;;;;;;0.15;0.15;;;;;17.80;100143.00;;;;5087154;28;20046;-77
2022/01/11 04:49:29;;;;;;;0.00;0.00;;;;;17.80;100146.00;;;;5087743;28;20097;-77
2022/01/11 04:51:59;;;;;;;0.00;0.00;;;;;17.80;100158.00;;;;5086937;28;20052;-77
2022/01/11 04:54:28;;;;;;;0.00;0.00;;;;;17.80;100164.00;;;;5088430;28;20511;-77
2022/01/11 04:56:58;;;;;;;0.00;0.00;;;;;17.80;100157.00;;;;5087028;28;20117;-77
2022/01/11 04:59:29;;;;;;;0.00;0.00;;;;;17.80;100152.00;;;;5087462;28;20058;-77
2022/01/11 05:01:59;;;;;;;0.00;0.00;;;;;17.80;100156.00;;;;5088315;28;20043;-77
2022/01/11 05:04:28;;;;;;;0.00;0.00;;;;;17.80;100153.00;;;;5087040;28;20056;-77
2022/01/11 05:06:58;;;;;;;0.00;0.00;;;;;17.80;100135.00;;;;5087952;28;20062;-77
2022/01/11 05:09:28;;;;;;;0.00;0.00;;;;;17.80;100147.00;;;;5087034;28;20050;-77
2022/01/11 05:11:57;;;;;;;0.00;0.00;;;;;17.70;100138.00;;;;5086801;28;20083;-77
2022/01/11 05:14:27;;;;;;;0.00;0.00;;;;;17.60;100134.00;;;;5087234;28;20445;-78
2022/01/11 05:16:57;;;;;;;0.00;0.00;;;;;17.70;100138.00;;;;5086518;28;20519;-78
2022/01/11 05:19:26;;;;;;;0.00;0.00;;;;;17.70;100139.00;;;;5087052;28;20135;-78
2022/01/11 05:21:56;;;;;;;0.00;0.00;;;;;17.80;100145.00;;;;5089196;28;20062;-79
2022/01/11 05:24:25;;;;;;;0.00;0.00;;;;;17.70;100141.00;;;;5087034;28;20126;-78
2022/01/11 05:26:56;;;;;;;;;;;;;17.70;100143.00;;;;5086719;28;20044;-77
2022/01/11 05:29:26;;;;;;;0.00;0.00;;;;;17.60;100152.00;;;;5087556;28;20409;-78
2022/01/11 05:31:58;;;;;;;0.00;0.00;;;;;17.60;100147.00;;;;5088530;28;20113;-77
2022/01/11 05:34:28;;;;;;;0.00;0.00;;;;;17.50;100147.00;;;;5088549;28;20040;-77
2022/01/11 05:36:59;;;;;;;0.00;0.00;;;;;17.60;100148.00;;;;5087120;28;20477;-77
2022/01/11 05:39:29;;;;;;;0.00;0.00;;;;;17.60;100137.00;;;;5087133;28;20426;-78
2022/01/11 05:42:00;;;;;;;0.00;0.00;;;;;17.50;100147.00;;;;5085990;28;20598;-78
2022/01/11 05:44:30;;;;;;;0.00;0.00;;;;;17.50;100118.00;;;;5088188;28;20040;-77
2022/01/11 05:47:03;;;;;;;0.00;0.00;;;;;17.50;100134.00;;;;5086814;28;20055;-78
2022/01/11 05:49:32;;;;;;;0.00;0.00;;;;;17.50;100127.00;;;;5086546;28;20052;-77
2022/01/11 05:52:02;;;;;;;0.00;0.00;;;;;17.50;100127.00;;;;5087360;28;20608;-78
2022/01/11 05:54:32;;;;;;;0.00;0.00;;;;;17.50;100142.00;;;;5088225;28;20467;-78
2022/01/11 05:57:01;;;;;;;0.00;0.00;;;;;17.50;100143.00;;;;5086149;28;20137;-78
2022/01/11 05:59:31;;;;;;;0.00;0.00;;;;;17.50;100145.00;;;;5086240;28;20048;-78
2022/01/11 06:02:00;;;;;;;0.00;0.00;;;;;17.40;100140.00;;;;5087517;28;20047;-78
2022/01/11 06:04:30;;;;;;;0.00;0.00;;;;;17.30;100140.00;;;;5085764;28;20044;-77
2022/01/11 06:07:00;;;;;;;0.00;0.00;;;;;17.30;100128.00;;;;5085192;28;20048;-77
2022/01/11 06:09:29;;;;;;;0.00;0.00;;;;;17.30;100149.00;;;;5086471;28;20052;-78
2022/01/11 06:11:59;;;;;;;0.00;0.00;;;;;17.30;100132.00;;;;5086071;28;20047;-77
2022/01/11 06:14:29;;;;;;;0.00;0.00;;;;;17.30;100151.00;;;;5085710;28;20125;-78
2022/01/11 06:16:58;;;;;;;0.00;0.00;;;;;17.30;100132.00;;;;5085914;28;20468;-78
2022/01/11 06:19:31;;;;;;;;;;;;;17.30;100138.00;;;;5086042;28;20529;-78
2022/01/11 06:22:06;;;;;;;0.00;0.00;;;;;17.30;100145.00;;;;5086050;28;19943;-78
2022/01/11 06:24:36;;;;;;;0.00;0.00;;;;;17.30;100148.00;;;;5069208;28;20052;-77
2022/01/11 06:27:06;;;;;;;0.00;0.00;;;;;17.30;100132.00;;;;5085469;28;20143;-78
2022/01/11 06:29:35;;;;;;;0.00;0.00;;;;;17.30;100141.00;;;;5085624;28;20447;-78
2022/01/11 06:32:05;;;;;;;0.00;0.00;;;;;17.20;100139.00;;;;5086665;28;20040;-78
2022/01/11 06:34:35;;;;;;;0.00;0.00;;;;;17.20;100139.00;;;;5085934;28;20058;-78
2022/01/11 06:37:04;;;;;;;0.00;0.00;;;;;17.10;100138.00;;;;5085823;28;20105;-77
2022/01/11 06:39:37;;;;;;;0.00;0.00;;;;;17.10;100154.00;;;;5085524;28;20102;-78
2022/01/11 06:42:07;;;;;;;0.00;0.00;;;;;17.20;100144.00;;;;5085107;28;20094;-78
2022/01/11 06:44:38;;;;;;;0.00;0.00;;;;;17.20;100135.00;;;;5086584;28;20047;-78
2022/01/11 06:47:11;;;;;;;0.00;0.00;;;;;17.10;100136.00;;;;5085521;28;20052;-77
2022/01/11 06:49:41;;;;;;;0.00;0.00;;;;;17.10;100152.00;;;;5085024;28;20047;-78
2022/01/11 06:52:11;;;;;;;0.00;0.00;;;;;17.00;100153.00;;;;5085206;28;20143;-78
2022/01/11 06:54:46;;;;;;;0.00;0.00;;;;;17.10;100146.00;;;;5085260;28;20139;-78
2022/01/11 06:57:16;;;;;;;0.00;0.00;;;;;17.10;100140.00;;;;5085723;28;20055;-78
2022/01/11 06:59:45;;;;;;;0.00;0.00;;;;;17.10;100132.00;;;;5085898;28;20419;-77
2022/01/11 07:02:19;;;;;;;0.00;0.00;;;;;17.00;100151.00;;;;5084612;28;20072;-78
2022/01/11 07:05:02;;;;;;;0.00;0.00;;;;;17.00;100142.00;;;;5085132;28;20052;-78
2022/01/11 07:07:32;;;;;;;0.00;0.00;;;;;17.00;100141.00;;;;5084904;28;20047;-78
2022/01/11 07:10:01;;;;;;;0.00;0.00;;;;;17.10;100144.00;;;;5086653;28;20036;-78
2022/01/11 07:12:31;;;;;;;0.00;0.00;;;;;17.00;100142.00;;;;5084908;28;20071;-78
2022/01/11 07:15:03;;;;;;;0.00;0.00;;;;;17.00;100160.00;;;;5068922;28;20514;-78
2022/01/11 07:17:34;;;;;;;0.08;0.08;;;;;17.00;100145.00;;;;5085084;28;20051;-79
2022/01/11 07:20:05;;;;;;;0.00;0.00;;;;;17.00;100158.00;;;;5084828;28;20056;-77
2022/01/11 07:22:37;;;;;;;0.88;0.40;;;;;17.00;100171.00;;;;5084986;28;20134;-77
2022/01/11 07:25:09;;;;;;;0.00;0.00;;;;;16.90;100164.00;;;;5084752;28;20114;-78
2022/01/11 07:27:40;;;;;;;0.00;0.00;;;;;17.00;100163.00;;;;5084859;28;20052;-77
2022/01/11 07:30:10;;;;;;;0.00;0.00;;;;;17.00;100161.00;;;;5085730;28;20439;-78
2022/01/11 07:32:46;;;;;;;0.08;0.08;;;;;16.90;100167.00;;;;5084733;28;20048;-77
2022/01/11 07:35:16;;;;;;;0.00;0.00;;;;;16.90;100168.00;;;;5085082;28;20056;-78
2022/01/11 07:37:46;;;;;;;0.00;0.00;;;;;17.00;100167.00;;;;5084319;28;20113;-77
2022/01/11 07:40:16;;;;;;;0.00;0.00;;;;;16.90;100151.00;;;;5084880;28;20166;-78
2022/01/11 07:42:49;;;;;;;0.00;0.00;;;;;16.90;100161.00;;;;5084456;28;20139;-76
2022/01/11 07:45:37;;;;;;;0.00;0.00;;;;;17.00;100163.00;;;;5084224;28;20135;-78
2022/01/11 07:48:09;;;;;;;0.00;0.00;;;;;16.90;100174.00;;;;5085027;28;20059;-78
2022/01/11 07:50:45;;;;;;;0.00;0.00;;;;;17.00;100154.00;;;;5084630;28;20055;-77
2022/01/11 07:53:16;;;;;;;0.00;0.00;;;;;17.00;100155.00;;;;5086888;28;20522;-77
2022/01/11 07:55:51;;;;;;;0.00;0.00;;;;;17.00;100170.00;;;;5088706;28;20044;-77
2022/01/11 07:58:22;;;;;;;0.00;0.00;;;;;16.90;100166.00;;;;5072385;28;20048;-77
2022/01/11 08:00:52;;;;;;;3.83;0.22;;;;;16.80;100170.00;;;;5089041;28;20048;-78
2022/01/11 08:03:30;;;;;;;0.00;0.00;;;;;16.90;100174.00;;;;5072863;28;20054;-77
2022/01/11 08:06:23;;;;;;;0.00;0.00;;;;;16.90;100174.00;;;;5078703;28;20057;-77
2022/01/11 08:09:01;;;;;;;0.00;0.00;;;;;16.90;100187.00;;;;5088376;28;20063;-77
2022/01/11 08:11:32;;;;;;;0.00;0.00;;;;;16.90;100172.00;;;;5088160;28;20058;-77
2022/01/11 08:14:03;;;;;;;0.00;0.00;;;;;16.90;100176.00;;;;5088225;28;20483;-77
2022/01/11 08:16:35;;;;;;;0.00;0.00;;;;;16.90;100186.00;;;;5088542;28;20055;-77
2022/01/11 08:19:08;;;;;;;0.00;0.00;;;;;16.80;100193.00;;;;5088332;28;20048;-77
2022/01/11 08:21:37;;;;;;;0.00;0.00;;;;;16.70;100197.00;;;;5088348;28;20151;-77
2022/01/11 08:24:07;;;;;;;0.00;0.00;;;;;16.70;100187.00;;;;5088377;28;20680;-77
2022/01/11 08:26:39;;;;;;;0.00;0.00;;;;;16.60;100208.00;;;;5087506;28;20048;-77
2022/01/11 08:29:10;;;;;;;0.00;0.00;;;;;16.60;100195.00;;;;5088097;28;20077;-78
2022/01/11 08:31:39;;;;;;;0.00;0.00;;;;;16.60;100199.00;;;;5088378;28;20422;-78
2022/01/11 08:34:11;;;;;;;0.00;0.00;;;;;16.60;100202.00;;;;5087817;28;20127;-77
2022/01/11 08:36:48;;;;;;;0.00;0.00;;;;;16.60;100199.00;;;;5088728;28;20071;-78
2022/01/11 08:39:19;;;;;;;0.00;0.00;;;;;16.60;100205.00;;;;5087507;28;20052;-78
2022/01/11 08:41:49;;;;;;;0.00;0.00;;;;;16.60;100209.00;;;;5089381;28;20197;-77
2022/01/11 08:44:20;;;;;;;0.00;0.00;;;;;16.70;100203.00;;;;5071255;28;20067;-77
2022/01/11 08:46:49;;;;;;;0.00;0.00;;;;;16.60;100202.00;;;;5088268;28;20044;-77
2022/01/11 08:49:25;;;;;;;0.00;0.00;;;;;16.60;100211.00;;;;5087458;28;20418;-77
2022/01/11 08:51:54;;;;;;;0.00;0.00;;;;;16.60;100218.00;;;;5086930;28;20044;-76
2022/01/11 08:54:24;;;;;;;0.00;0.00;;;;;16.70;100221.00;;;;5087267;28;20055;-77
2022/01/11 08:56:57;;;;;;;0.00;0.00;;;;;16.90;100212.00;;;;5087016;28;20511;-78
2022/01/11 08:59:28;;;;;;;0.00;0.00;;;;;16.90;100213.00;;;;5087888;28;20051;-78
2022/01/11 09:02:05;;;;;;;0.00;0.00;;;;;16.80;100226.00;;;;5087020;28;20464;-78
2022/01/11 09:04:36;;;;;;;0.00;0.00;;;;;16.90;100218.00;;;;5086426;28;20048;-78
2022/01/11 09:07:13;;;;;;;0.00;0.00;;;;;16.90;100233.00;;;;5087637;28;20439;-78
2022/01/11 09:09:44;;;;;;;0.00;0.00;;;;;17.00;100220.00;;;;5087306;28;20054;-77
2022/01/11 09:12:15;;;;;;;0.00;0.00;;;;;17.00;100239.00;;;;5087679;28;20491;-77
2022/01/11 09:14:48;;;;;;;0.00;0.00;;;;;17.10;100226.00;;;;5087586;28;20734;-77
2022/01/11 09:17:19;;;;;;;0.00;0.00;;;;;17.20;100223.00;;;;5071344;28;20044;-78
2022/01/11 09:19:49;;;;;;;0.00;0.00;;;;;17.30;100234.00;;;;5086835;28;20560;-77
2022/01/11 09:22:20;;;;;;;0.00;0.00;;;;;17.40;100237.00;;;;5087250;28;20094;-78
2022/01/11 09:24:51;;;;;;;0.00;0.00;;;;;17.50;100232.00;;;;5087043;28;20051;-78
2022/01/11 09:27:25;;;;;;;0.00;0.00;;;;;17.60;100231.00;;;;5086894;28;20062;-77
2022/01/11 09:30:08;;;;;;;0.00;0.00;;;;;17.60;100236.00;;;;5071545;28;20558;-77
2022/01/11 09:32:42;;;;;;;0.00;0.00;;;;;17.70;100232.00;;;;5087977;28;20113;-78
2022/01/11 09:35:14;;;;;;;0.00;0.00;;;;;17.80;100246.00;;;;5086643;28;20105;-78
2022/01/11 09:37:47;;;;;;;0.00;0.00;;;;;18.00;100229.00;;;;5086386;28;20812;-78
2022/01/11 09:40:17;;;;;;;0.00;0.00;;;;;19.00;100169.00;;;;5087987;28;20518;-77
2022/01/11 09:42:53;;;;;;;0.00;0.00;;;;;19.60;100115.00;;;;5086536;28;20917;-77
2022/01/11 09:45:24;;;;;;;0.00;0.00;;;;;20.50;100240.00;;;;5088733;28;20048;-78
2022/01/11 09:47:53;;;;;;;0.00;0.00;;;;;19.60;100245.00;;;;5086565;28;20052;-78
2022/01/11 09:50:23;;;;;;;0.00;0.00;;;;;19.30;100230.00;;;;5086284;28;20052;-78
2022/01/11 09:53:04;;;;;;;0.00;0.00;;;;;19.30;100219.00;;;;5086340;28;20146;-77
2022/01/11 09:55:37;;;;;;;0.00;0.00;;;;;20.40;100184.00;;;;5086183;28;20461;-77
2022/01/11 09:58:08;;;;;;;0.00;0.00;;;;;22.90;100105.00;;;;5086022;28;20047;-77
2022/01/11 10:00:53;;;;;;;0.00;0.00;;;;;24.50;100102.00;;;;5087673;28;20087;-78
2022/01/11 10:04:06;;;;;;;0.00;0.00;;;;;24.50;100146.00;;;;5024811;28;20057;-77
2022/01/11 10:06:57;;;;;;;0.00;0.00;;;;;23.00;100194.00;;;;5024804;28;20060;-76
2022/01/11 10:09:31;;;;;;;0.00;0.00;;;;;26.30;100053.00;;;;5061351;28;20047;-77
2022/01/11 10:12:08;;;;;;;0.00;0.00;;;;;24.80;100183.00;;;;5084877;28;20098;-77
2022/01/11 10:14:39;;;;;;;0.00;0.00;;;;;22.40;100245.00;;;;5083785;28;20055;-78
2022/01/11 10:17:19;;;;;;;0.00;0.00;;;;;21.70;100234.00;;;;5082129;28;20090;-77
2022/01/11 10:20:21;;;;;;;0.00;0.00;;;;;21.30;100251.00;;;;5081929;28;20134;-77
2022/01/11 10:23:13;;;;;;;0.00;0.00;;;;;21.30;100243.00;;;;5087586;28;20047;-77
2022/01/11 10:25:50;;;;;;;0.00;0.00;;;;;21.30;100276.00;;;;5086210;28;20544;-78
2022/01/11 10:28:35;;;;;;;0.00;0.00;;;;;21.40;100271.00;;;;5085774;28;20040;-77
2022/01/11 10:31:08;;;;;;;0.00;0.00;;;;;21.50;100257.00;;;;5087209;28;20715;-78
2022/01/11 10:34:01;;;;;;;0.70;0.20;;;;;22.10;100230.00;;;;5085822;28;20048;-77
2022/01/11 10:36:45;;;;;;;0.00;0.00;;;;;23.10;100239.00;;;;5085152;28;20549;-79
2022/01/11 10:39:37;;;;;;;0.10;0.10;;;;;22.60;100258.00;;;;5086813;28;20050;-76
2022/01/11 10:42:26;;;;;;;0.00;0.00;;;;;23.30;100238.00;;;;5082537;28;20550;-78
2022/01/11 10:45:05;;;;;;;0.00;0.00;;;;;23.50;100237.00;;;;5085530;28;20044;-77
2022/01/11 10:47:42;;;;;;;0.00;0.00;;;;;24.60;100226.00;;;;5085742;28;20048;-77
2022/01/11 10:50:18;;;;;;;0.00;0.00;;;;;24.20;100263.00;;;;5085512;28;20048;-78
2022/01/11 10:52:49;;;;;;;0.00;0.00;;;;;24.20;100241.00;;;;5085132;28;20048;-77
2022/01/11 10:55:28;;;;;;;0.00;0.00;;;;;24.60;100236.00;;;;5070162;28;20139;-78
2022/01/11 10:58:07;;;;;;;;;;;;;24.60;100263.00;;;;5085924;28;20048;-78
2022/01/11 11:00:50;;;;;;;0.00;0.00;;;;;23.70;100271.00;;;;5084319;28;19920;-79
2022/01/11 11:03:26;;;;;;;0.70;0.63;;;;;23.20;100286.00;;;;5085926;28;20052;-79
2022/01/11 11:06:07;;;;;;;0.10;0.10;;;;;23.60;100273.00;;;;5084934;28;20051;-78
2022/01/11 11:08:44;;;;;;;0.00;0.00;;;;;26.90;100165.00;;;;5084831;28;20047;-78
2022/01/11 11:11:23;;;;;;;0.00;0.00;;;;;30.70;100119.00;;;;5069684;28;20153;-78
2022/01/11 11:14:11;;;;;;;0.00;0.00;;;;;33.20;100092.00;;;;5086519;28;20050;-78
2022/01/11 11:16:45;;;;;;;0.00;0.00;;;;;33.20;100188.00;;;;5085229;28;20036;-79
2022/01/11 11:19:20;;;;;;;0.00;0.00;;;;;28.80;100225.00;;;;5084862;28;20051;-80
2022/01/11 11:21:58;;;;;;;0.00;0.00;;;;;32.90;100104.00;;;;5084536;28;20052;-79
2022/01/11 11:24:29;;;;;;;0.00;0.00;;;;;34.50;100092.00;;;;5086562;28;20040;-80
2022/01/11 11:26:58;;;;;;;0.00;0.00;;;;;34.80;100081.00;;;;5087337;28;20087;-79
2022/01/11 11:29:27;;;;;;;0.08;0.08;;;;;34.60;100053.00;;;;5089801;28;20438;-80
2022/01/11 11:32:15;;;;;;;0.13;0.13;;;;;34.80;100060.00;;;;5090529;28;20117;-81
2022/01/11 11:34:49;;;;;;;0.00;0.00;;;;;34.50;100057.00;;;;5090475;28;20039;-79
2022/01/11 11:37:40;;;;;;;0.00;0.00;;;;;34.30;100053.00;;;;5090356;28;20068;-80
2022/01/11 11:40:24;;;;;;;0.00;0.00;;;;;34.20;100045.00;;;;5089923;28;20070;-80
2022/01/11 11:42:59;;;;;;;0.10;0.00;;;;;34.10;100067.00;;;;5090307;28;20047;-79
2022/01/11 11:45:37;;;;;;;0.10;0.10;;;;;34.00;100074.00;;;;5090238;28;20060;-81
2022/01/11 11:48:10;;;;;;;0.17;0.17;;;;;33.90;100088.00;;;;5090646;28;20048;-80
2022/01/11 11:50:51;;;;;;;0.00;0.00;;;;;33.40;100093.00;;;;5089807;28;20071;-80
2022/01/11 11:53:38;;;;;;;0.00;0.00;;;;;32.90;100098.00;;;;5088412;28;20074;-80
2022/01/11 11:56:25;;;;;;;0.00;0.00;;;;;32.40;100098.00;;;;5090022;28;20040;-80
2022/01/11 11:58:57;;;;;;;0.10;0.10;;;;;31.30;100099.00;;;;5087716;28;20051;-79
2022/01/11 12:01:47;;;;;;;0.00;0.00;;;;;31.10;100111.00;;;;5090999;28;20466;-81
2022/01/11 12:04:36;;;;;;;0.00;0.00;;;;;30.60;100136.00;;;;5090290;28;20062;-81
2022/01/11 12:07:49;;;;;;;0.90;0.57;;;;;29.80;100167.00;;;;5089521;28;20032;-81
2022/01/11 12:10:42;;;;;;;0.00;0.00;;;;;29.70;100223.00;;;;5089654;28;20075;-80
2022/01/11 12:13:39;;;;;;;0.00;0.00;;;;;29.70;100230.00;;;;5088124;28;20055;-79
2022/01/11 12:16:28;;;;;;;0.00;0.00;;;;;29.60;100234.00;;;;5088352;28;20044;-81
2022/01/11 12:19:10;;;;;;;0.00;0.00;;;;;29.60;100217.00;;;;5090358;28;20036;-81
2022/01/11 12:22:07;;;;;;;0.00;0.00;;;;;29.50;100219.00;;;;5089783;28;20046;-82
2022/01/11 12:24:46;;;;;;;0.00;0.00;;;;;29.90;100217.00;;;;5089610;28;20112;-81
2022/01/11 12:27:19;;;;;;;0.00;0.00;;;;;30.90;100205.00;;;;5090073;28;20558;-81
2022/01/11 12:30:18;;;;;;;514.65;41.40;;;;;31.10;100216.00;;;;5089341;28;20048;-82
2022/01/11 12:33:12;;;;;;;0.00;0.00;;;;;31.10;100202.00;;;;5074246;28;20128;-81
2022/01/11 12:35:52;;;;;;;0.00;0.00;;;;;31.20;100202.00;;;;5089202;28;20115;-82
2022/01/11 12:38:23;;;;;;;0.03;0.03;;;;;31.60;100218.00;;;;5088370;28;20040;-82
2022/01/11 12:40:53;;;;;;;0.00;0.00;;;;;31.90;100209.00;;;;5088574;28;20525;-82
2022/01/11 12:43:41;;;;;;;0.00;0.00;;;;;31.60;100199.00;;;;5088738;28;20135;-81
2022/01/11 12:46:13;;;;;;;0.00;0.00;;;;;30.90;100213.00;;;;5088438;28;20078;-80